sensor_id;sensor_type;location;lat;lon;timestamp;P1;durP1;ratioP1;P2;durP2;ratioP2
28547;SDS011;15750;49.600;8.746;2022-11-15T00:00:08;4.30;;;2.80;;
28547;SDS011;15750;49.600;8.746;2022-11-15T00:03:15;3.10;;;2.80;;
28547;SDS011;15750;49.600;8.746;2022-11-15T00:06:23;2.80;;;2.60;;
28547;SDS011;15750;49.600;8.746;2022-11-15T00:09:29;3.30;;;2.83;;
28547;SDS011;15750;49.600;8.746;2022-11-15T00:12:35;3.60;;;2.90;;
28547;SDS011;15750;49.600;8.746;2022-11-15T00:15:41;3.97;;;2.97;;
28547;SDS011;15750;49.600;8.746;2022-11-15T00:18:47;2.77;;;2.53;;
28547;SDS011;15750;49.600;8.746;2022-11-15T00:21:55;3.17;;;2.87;;
28547;SDS011;15750;49.600;8.746;2022-11-15T00:25:01;3.20;;;2.90;;
28547;SDS011;15750;49.600;8.746;2022-11-15T00:28:07;2.77;;;2.57;;
28547;SDS011;15750;49.600;8.746;2022-11-15T00:31:13;3.43;;;3.10;;
28547;SDS011;15750;49.600;8.746;2022-11-15T00:34:19;3.77;;;3.13;;
28547;SDS011;15750;49.600;8.746;2022-11-15T00:37:27;3.93;;;3.10;;
28547;SDS011;15750;49.600;8.746;2022-11-15T00:40:33;3.87;;;3.43;;
28547;SDS011;15750;49.600;8.746;2022-11-15T00:43:39;3.27;;;3.00;;
28547;SDS011;15750;49.600;8.746;2022-11-15T00:46:48;4.20;;;3.77;;
28547;SDS011;15750;49.600;8.746;2022-11-15T00:49:54;3.37;;;3.07;;
28547;SDS011;15750;49.600;8.746;2022-11-15T00:53:01;6.33;;;3.13;;
28547;SDS011;15750;49.600;8.746;2022-11-15T00:56:07;3.27;;;2.97;;
28547;SDS011;15750;49.600;8.746;2022-11-15T00:59:14;3.63;;;2.90;;
28547;SDS011;15750;49.600;8.746;2022-11-15T01:02:19;3.83;;;3.00;;
28547;SDS011;15750;49.600;8.746;2022-11-15T01:05:25;3.37;;;3.07;;
28547;SDS011;15750;49.600;8.746;2022-11-15T01:08:33;5.07;;;3.10;;
28547;SDS011;15750;49.600;8.746;2022-11-15T01:11:39;3.40;;;3.10;;
28547;SDS011;15750;49.600;8.746;2022-11-15T01:14:45;3.27;;;2.97;;
28547;SDS011;15750;49.600;8.746;2022-11-15T01:17:51;3.23;;;2.93;;
28547;SDS011;15750;49.600;8.746;2022-11-15T01:20:57;3.73;;;3.20;;
28547;SDS011;15750;49.600;8.746;2022-11-15T01:24:04;3.43;;;2.83;;
28547;SDS011;15750;49.600;8.746;2022-11-15T01:27:11;3.50;;;3.20;;
28547;SDS011;15750;49.600;8.746;2022-11-15T01:30:17;3.50;;;3.20;;
28547;SDS011;15750;49.600;8.746;2022-11-15T01:33:23;3.47;;;3.17;;
28547;SDS011;15750;49.600;8.746;2022-11-15T01:36:29;3.50;;;3.20;;
28547;SDS011;15750;49.600;8.746;2022-11-15T01:39:37;4.73;;;3.50;;
28547;SDS011;15750;49.600;8.746;2022-11-15T01:42:43;4.23;;;3.13;;
28547;SDS011;15750;49.600;8.746;2022-11-15T01:45:50;7.67;;;3.40;;
28547;SDS011;15750;49.600;8.746;2022-11-15T01:49:01;4.50;;;3.17;;
28547;SDS011;15750;49.600;8.746;2022-11-15T01:52:11;3.33;;;3.00;;
28547;SDS011;15750;49.600;8.746;2022-11-15T01:55:22;3.23;;;2.93;;
28547;SDS011;15750;49.600;8.746;2022-11-15T01:58:31;3.87;;;3.47;;
28547;SDS011;15750;49.600;8.746;2022-11-15T02:01:38;4.33;;;3.07;;
28547;SDS011;15750;49.600;8.746;2022-11-15T02:04:46;3.30;;;2.73;;
28547;SDS011;15750;49.600;8.746;2022-11-15T02:07:52;4.23;;;2.87;;
28547;SDS011;15750;49.600;8.746;2022-11-15T02:11:00;3.43;;;3.13;;
28547;SDS011;15750;49.600;8.746;2022-11-15T02:14:06;3.87;;;2.77;;
28547;SDS011;15750;49.600;8.746;2022-11-15T02:17:25;4.13;;;3.30;;
28547;SDS011;15750;49.600;8.746;2022-11-15T02:20:52;4.17;;;3.27;;
28547;SDS011;15750;49.600;8.746;2022-11-15T02:31:53;3.60;;;3.10;;
28547;SDS011;15750;49.600;8.746;2022-11-15T02:35:06;3.23;;;2.93;;
28547;SDS011;15750;49.600;8.746;2022-11-15T02:38:24;3.43;;;2.77;;
28547;SDS011;15750;49.600;8.746;2022-11-15T02:41:39;3.60;;;3.13;;
28547;SDS011;15750;49.600;8.746;2022-11-15T02:44:51;3.17;;;2.87;;
28547;SDS011;15750;49.600;8.746;2022-11-15T02:48:01;3.77;;;3.43;;
28547;SDS011;15750;49.600;8.746;2022-11-15T02:51:10;4.60;;;3.00;;
28547;SDS011;15750;49.600;8.746;2022-11-15T02:54:19;3.30;;;3.00;;
28547;SDS011;15750;49.600;8.746;2022-11-15T02:57:29;3.50;;;3.20;;
28547;SDS011;15750;49.600;8.746;2022-11-15T03:00:47;3.20;;;2.90;;
28547;SDS011;15750;49.600;8.746;2022-11-15T03:04:02;4.57;;;3.43;;
28547;SDS011;15750;49.600;8.746;2022-11-15T03:07:25;3.63;;;3.03;;
28547;SDS011;15750;49.600;8.746;2022-11-15T03:10:42;2.70;;;2.50;;
28547;SDS011;15750;49.600;8.746;2022-11-15T03:14:01;3.33;;;2.90;;
28547;SDS011;15750;49.600;8.746;2022-11-15T03:17:18;4.63;;;3.20;;
28547;SDS011;15750;49.600;8.746;2022-11-15T03:20:30;5.30;;;3.40;;
28547;SDS011;15750;49.600;8.746;2022-11-15T03:23:38;4.57;;;2.90;;
28547;SDS011;15750;49.600;8.746;2022-11-15T03:26:44;5.63;;;2.97;;
28547;SDS011;15750;49.600;8.746;2022-11-15T03:29:51;3.50;;;3.13;;
28547;SDS011;15750;49.600;8.746;2022-11-15T03:33:00;3.60;;;3.30;;
28547;SDS011;15750;49.600;8.746;2022-11-15T03:36:10;4.57;;;3.40;;
28547;SDS011;15750;49.600;8.746;2022-11-15T03:39:16;5.83;;;3.50;;
28547;SDS011;15750;49.600;8.746;2022-11-15T03:42:25;3.50;;;3.20;;
28547;SDS011;15750;49.600;8.746;2022-11-15T03:45:39;3.40;;;3.10;;
28547;SDS011;15750;49.600;8.746;2022-11-15T03:48:50;4.70;;;3.27;;
28547;SDS011;15750;49.600;8.746;2022-11-15T03:52:03;4.13;;;3.37;;
28547;SDS011;15750;49.600;8.746;2022-11-15T03:55:11;3.60;;;2.97;;
28547;SDS011;15750;49.600;8.746;2022-11-15T03:58:21;3.17;;;2.83;;
28547;SDS011;15750;49.600;8.746;2022-11-15T04:01:27;5.37;;;3.27;;
28547;SDS011;15750;49.600;8.746;2022-11-15T04:04:33;3.30;;;3.00;;
28547;SDS011;15750;49.600;8.746;2022-11-15T04:07:40;4.43;;;3.40;;
28547;SDS011;15750;49.600;8.746;2022-11-15T04:10:48;3.87;;;3.57;;
28547;SDS011;15750;49.600;8.746;2022-11-15T04:13:54;6.33;;;3.93;;
28547;SDS011;15750;49.600;8.746;2022-11-15T04:17:00;3.63;;;3.30;;
28547;SDS011;15750;49.600;8.746;2022-11-15T04:20:07;3.43;;;3.07;;
28547;SDS011;15750;49.600;8.746;2022-11-15T04:23:35;4.00;;;3.57;;
28547;SDS011;15750;49.600;8.746;2022-11-15T04:27:01;4.33;;;3.93;;
28547;SDS011;15750;49.600;8.746;2022-11-15T04:30:08;4.03;;;3.60;;
28547;SDS011;15750;49.600;8.746;2022-11-15T04:33:14;3.70;;;3.40;;
28547;SDS011;15750;49.600;8.746;2022-11-15T04:36:21;4.10;;;3.70;;
28547;SDS011;15750;49.600;8.746;2022-11-15T04:39:46;4.43;;;3.40;;
28547;SDS011;15750;49.600;8.746;2022-11-15T04:42:51;4.20;;;3.50;;
28547;SDS011;15750;49.600;8.746;2022-11-15T04:46:06;3.97;;;3.57;;
28547;SDS011;15750;49.600;8.746;2022-11-15T04:49:12;3.87;;;3.57;;
28547;SDS011;15750;49.600;8.746;2022-11-15T04:52:18;4.10;;;3.70;;
28547;SDS011;15750;49.600;8.746;2022-11-15T04:55:25;3.97;;;3.40;;
28547;SDS011;15750;49.600;8.746;2022-11-15T04:58:32;4.33;;;3.43;;
28547;SDS011;15750;49.600;8.746;2022-11-15T05:01:38;4.70;;;3.87;;
28547;SDS011;15750;49.600;8.746;2022-11-15T05:04:48;9.27;;;3.60;;
28547;SDS011;15750;49.600;8.746;2022-11-15T05:07:53;4.23;;;3.43;;
28547;SDS011;15750;49.600;8.746;2022-11-15T05:11:00;5.43;;;4.07;;
28547;SDS011;15750;49.600;8.746;2022-11-15T05:14:06;5.07;;;4.40;;
28547;SDS011;15750;49.600;8.746;2022-11-15T05:17:12;4.23;;;3.83;;
28547;SDS011;15750;49.600;8.746;2022-11-15T05:20:18;4.27;;;3.87;;
28547;SDS011;15750;49.600;8.746;2022-11-15T05:23:24;4.43;;;4.03;;
28547;SDS011;15750;49.600;8.746;2022-11-15T05:26:31;4.27;;;3.80;;
28547;SDS011;15750;49.600;8.746;2022-11-15T05:29:37;6.23;;;4.07;;
28547;SDS011;15750;49.600;8.746;2022-11-15T05:32:43;4.27;;;3.77;;
28547;SDS011;15750;49.600;8.746;2022-11-15T05:35:50;3.87;;;3.47;;
28547;SDS011;15750;49.600;8.746;2022-11-15T05:39:05;4.30;;;3.70;;
28547;SDS011;15750;49.600;8.746;2022-11-15T05:42:14;6.13;;;3.70;;
28547;SDS011;15750;49.600;8.746;2022-11-15T05:45:21;6.10;;;3.50;;
28547;SDS011;15750;49.600;8.746;2022-11-15T05:48:29;4.93;;;3.73;;
28547;SDS011;15750;49.600;8.746;2022-11-15T05:51:36;6.47;;;3.60;;
28547;SDS011;15750;49.600;8.746;2022-11-15T05:54:42;3.80;;;3.40;;
28547;SDS011;15750;49.600;8.746;2022-11-15T05:57:50;3.50;;;3.20;;
28547;SDS011;15750;49.600;8.746;2022-11-15T06:00:56;4.17;;;3.77;;
28547;SDS011;15750;49.600;8.746;2022-11-15T06:04:02;3.83;;;3.50;;
28547;SDS011;15750;49.600;8.746;2022-11-15T06:07:08;3.70;;;3.40;;
28547;SDS011;15750;49.600;8.746;2022-11-15T06:10:15;4.80;;;3.47;;
28547;SDS011;15750;49.600;8.746;2022-11-15T06:13:22;5.60;;;3.50;;
28547;SDS011;15750;49.600;8.746;2022-11-15T06:16:28;5.27;;;3.53;;
28547;SDS011;15750;49.600;8.746;2022-11-15T06:19:34;3.43;;;3.10;;
28547;SDS011;15750;49.600;8.746;2022-11-15T06:22:40;3.93;;;3.53;;
28547;SDS011;15750;49.600;8.746;2022-11-15T06:25:46;5.73;;;3.57;;
28547;SDS011;15750;49.600;8.746;2022-11-15T06:28:53;3.40;;;3.10;;
28547;SDS011;15750;49.600;8.746;2022-11-15T06:31:59;4.17;;;3.67;;
28547;SDS011;15750;49.600;8.746;2022-11-15T06:35:06;4.97;;;3.60;;
28547;SDS011;15750;49.600;8.746;2022-11-15T06:38:12;6.53;;;3.63;;
28547;SDS011;15750;49.600;8.746;2022-11-15T06:41:18;4.07;;;3.77;;
28547;SDS011;15750;49.600;8.746;2022-11-15T06:44:26;5.83;;;4.13;;
28547;SDS011;15750;49.600;8.746;2022-11-15T06:47:35;3.87;;;3.47;;
28547;SDS011;15750;49.600;8.746;2022-11-15T06:50:50;4.73;;;3.97;;
28547;SDS011;15750;49.600;8.746;2022-11-15T06:53:57;3.83;;;3.40;;
28547;SDS011;15750;49.600;8.746;2022-11-15T06:57:03;5.83;;;3.33;;
28547;SDS011;15750;49.600;8.746;2022-11-15T07:00:12;4.03;;;3.57;;
28547;SDS011;15750;49.600;8.746;2022-11-15T07:03:19;4.40;;;3.77;;
28547;SDS011;15750;49.600;8.746;2022-11-15T07:06:07;4.40;;;3.90;;
28547;SDS011;15750;49.600;8.746;2022-11-15T07:08:55;4.93;;;4.00;;
28547;SDS011;15750;49.600;8.746;2022-11-15T07:11:42;5.17;;;4.20;;
28547;SDS011;15750;49.600;8.746;2022-11-15T07:14:29;4.33;;;3.90;;
28547;SDS011;15750;49.600;8.746;2022-11-15T07:17:18;4.93;;;4.50;;
28547;SDS011;15750;49.600;8.746;2022-11-15T07:20:05;4.70;;;4.20;;
28547;SDS011;15750;49.600;8.746;2022-11-15T07:22:58;5.03;;;4.47;;
28547;SDS011;15750;49.600;8.746;2022-11-15T07:25:47;6.33;;;4.90;;
28547;SDS011;15750;49.600;8.746;2022-11-15T07:28:34;7.33;;;4.83;;
28547;SDS011;15750;49.600;8.746;2022-11-15T07:31:22;6.70;;;6.00;;
28547;SDS011;15750;49.600;8.746;2022-11-15T07:34:11;8.17;;;7.37;;
28547;SDS011;15750;49.600;8.746;2022-11-15T07:36:59;7.00;;;6.30;;
28547;SDS011;15750;49.600;8.746;2022-11-15T07:39:46;7.50;;;6.80;;
28547;SDS011;15750;49.600;8.746;2022-11-15T07:42:33;6.50;;;5.90;;
28547;SDS011;15750;49.600;8.746;2022-11-15T07:45:39;7.63;;;6.37;;
28547;SDS011;15750;49.600;8.746;2022-11-15T07:48:28;7.03;;;5.97;;
28547;SDS011;15750;49.600;8.746;2022-11-15T07:51:29;5.80;;;5.00;;
28547;SDS011;15750;49.600;8.746;2022-11-15T07:54:17;6.50;;;5.63;;
28547;SDS011;15750;49.600;8.746;2022-11-15T07:57:04;6.53;;;5.93;;
28547;SDS011;15750;49.600;8.746;2022-11-15T07:59:52;7.67;;;6.80;;
28547;SDS011;15750;49.600;8.746;2022-11-15T08:02:39;6.60;;;6.00;;
28547;SDS011;15750;49.600;8.746;2022-11-15T08:05:27;7.17;;;6.17;;
28547;SDS011;15750;49.600;8.746;2022-11-15T08:08:15;9.47;;;5.97;;
28547;SDS011;15750;49.600;8.746;2022-11-15T08:11:03;7.83;;;7.03;;
28547;SDS011;15750;49.600;8.746;2022-11-15T08:13:50;7.23;;;6.47;;
28547;SDS011;15750;49.600;8.746;2022-11-15T08:16:37;10.37;;;9.27;;
28547;SDS011;15750;49.600;8.746;2022-11-15T08:19:24;9.47;;;7.23;;
28547;SDS011;15750;49.600;8.746;2022-11-15T08:22:11;9.83;;;6.87;;
28547;SDS011;15750;49.600;8.746;2022-11-15T08:25:00;7.87;;;6.77;;
28547;SDS011;15750;49.600;8.746;2022-11-15T08:27:47;10.73;;;5.80;;
28547;SDS011;15750;49.600;8.746;2022-11-15T08:30:39;6.60;;;4.83;;
28547;SDS011;15750;49.600;8.746;2022-11-15T08:33:30;6.70;;;5.03;;
28547;SDS011;15750;49.600;8.746;2022-11-15T08:36:19;5.30;;;4.40;;
28547;SDS011;15750;49.600;8.746;2022-11-15T08:39:08;5.43;;;4.80;;
28547;SDS011;15750;49.600;8.746;2022-11-15T08:41:58;5.50;;;5.00;;
28547;SDS011;15750;49.600;8.746;2022-11-15T08:44:45;5.73;;;4.80;;
28547;SDS011;15750;49.600;8.746;2022-11-15T08:47:33;5.93;;;5.33;;
28547;SDS011;15750;49.600;8.746;2022-11-15T08:50:20;7.23;;;5.27;;
28547;SDS011;15750;49.600;8.746;2022-11-15T08:53:08;5.07;;;4.60;;
28547;SDS011;15750;49.600;8.746;2022-11-15T08:55:56;6.83;;;5.40;;
28547;SDS011;15750;49.600;8.746;2022-11-15T08:58:44;6.40;;;4.40;;
28547;SDS011;15750;49.600;8.746;2022-11-15T09:01:32;5.53;;;4.60;;
28547;SDS011;15750;49.600;8.746;2022-11-15T09:04:19;6.53;;;5.07;;
28547;SDS011;15750;49.600;8.746;2022-11-15T09:07:06;8.67;;;4.73;;
28547;SDS011;15750;49.600;8.746;2022-11-15T09:09:54;5.03;;;4.53;;
28547;SDS011;15750;49.600;8.746;2022-11-15T09:12:42;5.80;;;5.23;;
28547;SDS011;15750;49.600;8.746;2022-11-15T09:15:30;6.10;;;5.10;;
28547;SDS011;15750;49.600;8.746;2022-11-15T09:18:17;7.07;;;5.40;;
28547;SDS011;15750;49.600;8.746;2022-11-15T09:21:07;6.37;;;5.60;;
28547;SDS011;15750;49.600;8.746;2022-11-15T09:23:55;6.17;;;5.57;;
28547;SDS011;15750;49.600;8.746;2022-11-15T09:26:43;6.50;;;5.63;;
28547;SDS011;15750;49.600;8.746;2022-11-15T09:29:31;6.17;;;5.53;;
28547;SDS011;15750;49.600;8.746;2022-11-15T09:32:23;6.17;;;5.57;;
28547;SDS011;15750;49.600;8.746;2022-11-15T09:35:20;6.63;;;5.73;;
28547;SDS011;15750;49.600;8.746;2022-11-15T09:38:07;9.13;;;5.93;;
28547;SDS011;15750;49.600;8.746;2022-11-15T09:40:57;6.40;;;5.80;;
28547;SDS011;15750;49.600;8.746;2022-11-15T09:47:44;7.97;;;6.90;;
28547;SDS011;15750;49.600;8.746;2022-11-15T09:50:49;7.90;;;6.37;;
28547;SDS011;15750;49.600;8.746;2022-11-15T09:53:22;7.20;;;5.90;;
28547;SDS011;15750;49.600;8.746;2022-11-15T09:56:16;8.70;;;5.50;;
28547;SDS011;15750;49.600;8.746;2022-11-15T09:58:50;6.10;;;5.10;;
28547;SDS011;15750;49.600;8.746;2022-11-15T10:01:33;4.93;;;4.20;;
28547;SDS011;15750;49.600;8.746;2022-11-15T10:04:13;4.77;;;3.40;;
28547;SDS011;15750;49.600;8.746;2022-11-15T10:06:45;4.73;;;3.43;;
28547;SDS011;15750;49.600;8.746;2022-11-15T10:09:20;3.33;;;3.03;;
28547;SDS011;15750;49.600;8.746;2022-11-15T10:11:55;4.00;;;3.03;;
28547;SDS011;15750;49.600;8.746;2022-11-15T10:14:25;4.13;;;3.63;;
28547;SDS011;15750;49.600;8.746;2022-11-15T10:17:10;3.40;;;3.00;;
28547;SDS011;15750;49.600;8.746;2022-11-15T10:19:58;2.93;;;2.63;;
28547;SDS011;15750;49.600;8.746;2022-11-15T10:22:41;3.00;;;2.73;;
28547;SDS011;15750;49.600;8.746;2022-11-15T10:25:17;2.70;;;2.47;;
28547;SDS011;15750;49.600;8.746;2022-11-15T10:27:55;2.87;;;2.27;;
28547;SDS011;15750;49.600;8.746;2022-11-15T10:30:33;2.67;;;2.30;;
28547;SDS011;15750;49.600;8.746;2022-11-15T10:33:11;4.03;;;3.43;;
28547;SDS011;15750;49.600;8.746;2022-11-15T10:38:54;3.87;;;3.53;;
28547;SDS011;15750;49.600;8.746;2022-11-15T10:44:18;3.90;;;2.90;;
28547;SDS011;15750;49.600;8.746;2022-11-15T10:47:05;3.03;;;2.73;;
28547;SDS011;15750;49.600;8.746;2022-11-15T10:50:05;3.40;;;2.60;;
28547;SDS011;15750;49.600;8.746;2022-11-15T10:52:56;3.40;;;2.13;;
28547;SDS011;15750;49.600;8.746;2022-11-15T10:55:27;4.30;;;2.70;;
28547;SDS011;15750;49.600;8.746;2022-11-15T10:58:00;2.37;;;2.17;;
28547;SDS011;15750;49.600;8.746;2022-11-15T11:00:34;2.17;;;1.97;;
28547;SDS011;15750;49.600;8.746;2022-11-15T11:03:06;2.30;;;2.00;;
28547;SDS011;15750;49.600;8.746;2022-11-15T11:06:09;2.40;;;2.00;;
28547;SDS011;15750;49.600;8.746;2022-11-15T11:08:52;2.03;;;1.90;;
28547;SDS011;15750;49.600;8.746;2022-11-15T11:11:23;3.20;;;1.80;;
28547;SDS011;15750;49.600;8.746;2022-11-15T11:13:52;2.23;;;2.10;;
28547;SDS011;15750;49.600;8.746;2022-11-15T11:16:32;1.93;;;1.67;;
28547;SDS011;15750;49.600;8.746;2022-11-15T11:19:17;2.05;;;1.75;;
28547;SDS011;15750;49.600;8.746;2022-11-15T11:22:09;1.80;;;1.70;;
28547;SDS011;15750;49.600;8.746;2022-11-15T11:24:52;1.95;;;1.70;;
28547;SDS011;15750;49.600;8.746;2022-11-15T11:27:36;1.77;;;1.67;;
28547;SDS011;15750;49.600;8.746;2022-11-15T11:30:16;2.00;;;1.75;;
28547;SDS011;15750;49.600;8.746;2022-11-15T11:32:56;2.10;;;1.70;;
28547;SDS011;15750;49.600;8.746;2022-11-15T11:35:45;2.53;;;2.33;;
28547;SDS011;15750;49.600;8.746;2022-11-15T11:41:20;2.42;;;1.90;;
28547;SDS011;15750;49.600;8.746;2022-11-15T11:44:12;1.58;;;1.48;;
28547;SDS011;15750;49.600;8.746;2022-11-15T11:46:55;2.70;;;2.00;;
28547;SDS011;15750;49.600;8.746;2022-11-15T11:49:29;2.05;;;1.92;;
28547;SDS011;15750;49.600;8.746;2022-11-15T11:52:07;3.73;;;2.23;;
28547;SDS011;15750;49.600;8.746;2022-11-15T11:54:45;3.17;;;2.15;;
28547;SDS011;15750;49.600;8.746;2022-11-15T11:57:25;2.40;;;1.77;;
28547;SDS011;15750;49.600;8.746;2022-11-15T12:00:04;1.92;;;1.83;;
28547;SDS011;15750;49.600;8.746;2022-11-15T12:02:47;2.20;;;2.00;;
28547;SDS011;15750;49.600;8.746;2022-11-15T12:05:30;2.25;;;2.05;;
28547;SDS011;15750;49.600;8.746;2022-11-15T12:08:09;1.80;;;1.60;;
28547;SDS011;15750;49.600;8.746;2022-11-15T12:10:58;1.90;;;1.80;;
28547;SDS011;15750;49.600;8.746;2022-11-15T12:13:45;2.40;;;2.20;;
28547;SDS011;15750;49.600;8.746;2022-11-15T12:16:18;2.00;;;1.90;;
28547;SDS011;15750;49.600;8.746;2022-11-15T12:18:55;2.05;;;1.90;;
28547;SDS011;15750;49.600;8.746;2022-11-15T12:21:34;2.70;;;2.03;;
28547;SDS011;15750;49.600;8.746;2022-11-15T12:24:11;3.27;;;1.70;;
28547;SDS011;15750;49.600;8.746;2022-11-15T12:26:48;1.75;;;1.60;;
28547;SDS011;15750;49.600;8.746;2022-11-15T12:29:25;1.90;;;1.80;;
28547;SDS011;15750;49.600;8.746;2022-11-15T12:31:59;1.98;;;1.88;;
28547;SDS011;15750;49.600;8.746;2022-11-15T12:34:35;2.25;;;2.05;;
28547;SDS011;15750;49.600;8.746;2022-11-15T12:40:23;2.28;;;1.70;;
28547;SDS011;15750;49.600;8.746;2022-11-15T12:46:10;1.60;;;1.50;;
28547;SDS011;15750;49.600;8.746;2022-11-15T12:48:49;2.65;;;1.85;;
28547;SDS011;15750;49.600;8.746;2022-11-15T12:51:21;2.13;;;1.92;;
28547;SDS011;15750;49.600;8.746;2022-11-15T12:57:46;2.28;;;2.10;;
28547;SDS011;15750;49.600;8.746;2022-11-15T13:03:28;3.10;;;2.80;;
28547;SDS011;15750;49.600;8.746;2022-11-15T13:06:07;3.78;;;3.47;;
28547;SDS011;15750;49.600;8.746;2022-11-15T13:08:58;3.20;;;2.90;;
28547;SDS011;15750;49.600;8.746;2022-11-15T13:11:47;3.95;;;2.40;;
28547;SDS011;15750;49.600;8.746;2022-11-15T13:17:25;2.90;;;1.98;;
28547;SDS011;15750;49.600;8.746;2022-11-15T13:19:59;2.72;;;1.98;;
28547;SDS011;15750;49.600;8.746;2022-11-15T13:22:50;2.00;;;1.90;;
28547;SDS011;15750;49.600;8.746;2022-11-15T13:25:32;2.20;;;2.00;;
28547;SDS011;15750;49.600;8.746;2022-11-15T13:28:29;3.53;;;2.00;;
28547;SDS011;15750;49.600;8.746;2022-11-15T13:31:02;3.55;;;1.73;;
28547;SDS011;15750;49.600;8.746;2022-11-15T13:33:47;2.40;;;2.20;;
28547;SDS011;15750;49.600;8.746;2022-11-15T13:36:19;2.42;;;2.22;;
28547;SDS011;15750;49.600;8.746;2022-11-15T13:38:57;2.67;;;1.80;;
28547;SDS011;15750;49.600;8.746;2022-11-15T13:41:30;2.10;;;1.90;;
28547;SDS011;15750;49.600;8.746;2022-11-15T13:44:01;1.92;;;1.83;;
28547;SDS011;15750;49.600;8.746;2022-11-15T13:46:32;2.42;;;2.00;;
28547;SDS011;15750;49.600;8.746;2022-11-15T13:49:03;2.20;;;2.00;;
28547;SDS011;15750;49.600;8.746;2022-11-15T13:51:35;2.17;;;1.98;;
28547;SDS011;15750;49.600;8.746;2022-11-15T13:54:13;1.98;;;1.88;;
28547;SDS011;15750;49.600;8.746;2022-11-15T13:56:49;1.88;;;1.60;;
28547;SDS011;15750;49.600;8.746;2022-11-15T13:59:24;2.00;;;1.80;;
28547;SDS011;15750;49.600;8.746;2022-11-15T14:01:56;1.63;;;1.35;;
28547;SDS011;15750;49.600;8.746;2022-11-15T14:04:30;2.38;;;1.65;;
28547;SDS011;15750;49.600;8.746;2022-11-15T14:07:15;2.40;;;2.20;;
28547;SDS011;15750;49.600;8.746;2022-11-15T14:09:47;2.10;;;1.90;;
28547;SDS011;15750;49.600;8.746;2022-11-15T14:12:30;3.15;;;2.08;;
28547;SDS011;15750;49.600;8.746;2022-11-15T14:15:01;2.20;;;2.00;;
28547;SDS011;15750;49.600;8.746;2022-11-15T14:17:49;2.22;;;1.73;;
28547;SDS011;15750;49.600;8.746;2022-11-15T14:20:29;1.70;;;1.60;;
28547;SDS011;15750;49.600;8.746;2022-11-15T14:23:01;1.63;;;1.53;;
28547;SDS011;15750;49.600;8.746;2022-11-15T14:25:33;1.63;;;1.52;;
28547;SDS011;15750;49.600;8.746;2022-11-15T14:28:10;1.83;;;1.70;;
28547;SDS011;15750;49.600;8.746;2022-11-15T14:30:57;1.70;;;1.60;;
28547;SDS011;15750;49.600;8.746;2022-11-15T14:33:28;1.95;;;1.83;;
28547;SDS011;15750;49.600;8.746;2022-11-15T14:36:02;2.72;;;1.60;;
28547;SDS011;15750;49.600;8.746;2022-11-15T14:38:34;1.90;;;1.70;;
28547;SDS011;15750;49.600;8.746;2022-11-15T14:41:03;2.42;;;1.40;;
28547;SDS011;15750;49.600;8.746;2022-11-15T14:43:32;2.10;;;1.90;;
28547;SDS011;15750;49.600;8.746;2022-11-15T14:46:01;2.47;;;1.90;;
28547;SDS011;15750;49.600;8.746;2022-11-15T14:48:30;2.30;;;1.80;;
28547;SDS011;15750;49.600;8.746;2022-11-15T14:50:59;2.10;;;1.90;;
28547;SDS011;15750;49.600;8.746;2022-11-15T14:53:27;1.60;;;1.50;;
28547;SDS011;15750;49.600;8.746;2022-11-15T14:55:57;3.38;;;1.67;;
28547;SDS011;15750;49.600;8.746;2022-11-15T14:58:26;1.60;;;1.48;;
28547;SDS011;15750;49.600;8.746;2022-11-15T15:00:55;3.78;;;1.80;;
28547;SDS011;15750;49.600;8.746;2022-11-15T15:03:23;2.03;;;1.45;;
28547;SDS011;15750;49.600;8.746;2022-11-15T15:05:52;2.03;;;1.60;;
28547;SDS011;15750;49.600;8.746;2022-11-15T15:08:21;2.35;;;1.52;;
28547;SDS011;15750;49.600;8.746;2022-11-15T15:10:50;1.65;;;1.55;;
28547;SDS011;15750;49.600;8.746;2022-11-15T15:13:20;1.75;;;1.65;;
28547;SDS011;15750;49.600;8.746;2022-11-15T15:15:55;1.73;;;1.48;;
28547;SDS011;15750;49.600;8.746;2022-11-15T15:18:23;4.20;;;2.35;;
28547;SDS011;15750;49.600;8.746;2022-11-15T15:20:54;3.00;;;2.10;;
28547;SDS011;15750;49.600;8.746;2022-11-15T15:23:26;2.03;;;1.90;;
28547;SDS011;15750;49.600;8.746;2022-11-15T15:25:57;3.35;;;2.20;;
28547;SDS011;15750;49.600;8.746;2022-11-15T15:28:27;1.83;;;1.65;;
28547;SDS011;15750;49.600;8.746;2022-11-15T15:31:00;1.90;;;1.80;;
28547;SDS011;15750;49.600;8.746;2022-11-15T15:33:29;2.60;;;2.15;;
28547;SDS011;15750;49.600;8.746;2022-11-15T15:35:57;2.43;;;1.53;;
28547;SDS011;15750;49.600;8.746;2022-11-15T15:38:26;1.95;;;1.80;;
28547;SDS011;15750;49.600;8.746;2022-11-15T15:40:55;2.37;;;1.80;;
28547;SDS011;15750;49.600;8.746;2022-11-15T15:43:27;1.85;;;1.70;;
28547;SDS011;15750;49.600;8.746;2022-11-15T15:45:56;3.80;;;1.50;;
28547;SDS011;15750;49.600;8.746;2022-11-15T15:48:25;1.70;;;1.60;;
28547;SDS011;15750;49.600;8.746;2022-11-15T15:50:54;2.05;;;1.90;;
28547;SDS011;15750;49.600;8.746;2022-11-15T15:53:23;2.10;;;1.90;;
28547;SDS011;15750;49.600;8.746;2022-11-15T15:55:51;4.03;;;1.80;;
28547;SDS011;15750;49.600;8.746;2022-11-15T15:58:20;2.88;;;2.65;;
28547;SDS011;15750;49.600;8.746;2022-11-15T16:00:50;5.15;;;3.97;;
28547;SDS011;15750;49.600;8.746;2022-11-15T16:03:19;7.07;;;5.95;;
28547;SDS011;15750;49.600;8.746;2022-11-15T16:05:49;7.78;;;6.65;;
28547;SDS011;15750;49.600;8.746;2022-11-15T16:08:19;6.03;;;4.77;;
28547;SDS011;15750;49.600;8.746;2022-11-15T16:10:49;3.10;;;2.80;;
28547;SDS011;15750;49.600;8.746;2022-11-15T16:13:17;2.78;;;2.45;;
28547;SDS011;15750;49.600;8.746;2022-11-15T16:15:47;2.47;;;2.28;;
28547;SDS011;15750;49.600;8.746;2022-11-15T16:18:20;2.92;;;1.90;;
28547;SDS011;15750;49.600;8.746;2022-11-15T16:20:49;2.72;;;2.13;;
28547;SDS011;15750;49.600;8.746;2022-11-15T16:23:23;2.20;;;2.00;;
28547;SDS011;15750;49.600;8.746;2022-11-15T16:25:52;2.10;;;1.90;;
28547;SDS011;15750;49.600;8.746;2022-11-15T16:28:23;2.38;;;2.17;;
28547;SDS011;15750;49.600;8.746;2022-11-15T16:31:00;4.28;;;2.13;;
28547;SDS011;15750;49.600;8.746;2022-11-15T16:33:31;2.55;;;2.05;;
28547;SDS011;15750;49.600;8.746;2022-11-15T16:36:00;2.47;;;2.23;;
28547;SDS011;15750;49.600;8.746;2022-11-15T16:38:29;4.85;;;2.20;;
28547;SDS011;15750;49.600;8.746;2022-11-15T16:40:58;2.30;;;2.10;;
28547;SDS011;15750;49.600;8.746;2022-11-15T16:43:27;2.45;;;2.05;;
28547;SDS011;15750;49.600;8.746;2022-11-15T16:45:55;2.63;;;2.17;;
28547;SDS011;15750;49.600;8.746;2022-11-15T16:48:26;2.77;;;2.00;;
28547;SDS011;15750;49.600;8.746;2022-11-15T16:50:56;2.78;;;2.17;;
28547;SDS011;15750;49.600;8.746;2022-11-15T16:53:26;2.50;;;2.10;;
28547;SDS011;15750;49.600;8.746;2022-11-15T16:55:55;2.55;;;2.28;;
28547;SDS011;15750;49.600;8.746;2022-11-15T16:58:25;3.23;;;2.70;;
28547;SDS011;15750;49.600;8.746;2022-11-15T17:00:54;3.13;;;2.30;;
28547;SDS011;15750;49.600;8.746;2022-11-15T17:03:24;2.83;;;2.55;;
28547;SDS011;15750;49.600;8.746;2022-11-15T17:05:57;3.17;;;2.73;;
28547;SDS011;15750;49.600;8.746;2022-11-15T17:08:26;3.25;;;2.25;;
28547;SDS011;15750;49.600;8.746;2022-11-15T17:10:55;3.60;;;2.40;;
28547;SDS011;15750;49.600;8.746;2022-11-15T17:13:24;2.65;;;2.13;;
28547;SDS011;15750;49.600;8.746;2022-11-15T17:16:01;5.65;;;2.20;;
28547;SDS011;15750;49.600;8.746;2022-11-15T17:18:34;2.30;;;2.10;;
28547;SDS011;15750;49.600;8.746;2022-11-15T17:21:04;2.45;;;2.25;;
28547;SDS011;15750;49.600;8.746;2022-11-15T17:23:34;2.60;;;2.40;;
28547;SDS011;15750;49.600;8.746;2022-11-15T17:26:03;2.78;;;2.05;;
28547;SDS011;15750;49.600;8.746;2022-11-15T17:28:53;4.47;;;2.50;;
28547;SDS011;15750;49.600;8.746;2022-11-15T17:31:23;2.77;;;2.57;;
28547;SDS011;15750;49.600;8.746;2022-11-15T17:33:54;3.20;;;2.88;;
28547;SDS011;15750;49.600;8.746;2022-11-15T17:36:22;3.07;;;2.77;;
28547;SDS011;15750;49.600;8.746;2022-11-15T17:38:51;3.50;;;3.20;;